Time;durP1;ratioP1;P1;durP2;ratioP2;P2;SDS_P1;SDS_P2;PMS_P1;PMS_P2;Temp;Humidity;BMP_temperature;BMP_pressure;BME280_temperature;BME280_humidity;BME280_pressure;Samples;Min_cycle;Max_cycle;Signal;HPM_P1;HPM_P2
2021/03/29 07:13:55;;;;;;;;;;;;;;;10.49;56.26;101128.63;6186959;23;19932;-83
2021/03/29 07:16:21;;;;;;;;;;;;;;;10.48;55.86;101132.19;6186991;23;19916;-84
2021/03/29 07:18:48;;;;;;;;;;;;;;;10.48;56.17;101135.72;6160720;23;19922;-85
2021/03/29 07:21:16;;;;;;;;;;;;;;;10.49;56.29;101136.59;6186532;23;19943;-85
2021/03/29 07:23:42;;;;;;;;;;;;;;;10.49;56.02;101144.53;6161198;23;20292;-84
2021/03/29 07:26:25;;;;;;;;;;;;;;;10.49;56.33;101141.88;6186269;23;19987;-80
2021/03/29 07:28:51;;;;;;;;;;;;;;;10.49;56.12;101141.88;6186893;23;19920;-87
2021/03/29 07:31:36;;;;;;;;;;;;;;;10.50;56.13;101144.50;6162162;23;19942;-86
2021/03/29 07:34:01;;;;;;;;;;;;;;;10.50;56.04;101143.66;6161821;23;19926;-87
2021/03/29 07:36:40;;;;;;;;;;;;;;;10.49;56.35;101141.88;6186881;23;19940;-86
2021/03/29 07:39:06;;;;;;;;;;;;;;;10.50;56.04;101143.66;6187854;23;19912;-86
2021/03/29 07:41:32;;;;;;;;;;;;;;;10.50;56.05;101141.84;6161975;23;19921;-83
2021/03/29 07:44:09;;;;;;;;;;;;;;;10.51;56.67;101142.72;6160725;23;19923;-85
2021/03/29 07:46:36;;;;;;;;;;;;;;;10.51;56.20;101142.72;6161690;23;20099;-86
2021/03/29 07:49:01;;;;;;;;;;;;;;;10.51;56.35;101140.06;6161889;23;19927;-85
2021/03/29 07:51:27;;;;;;;;;;;;;;;10.51;56.48;101140.97;6160837;23;19987;-85
2021/03/29 07:53:53;;;;;;;;;;;;;;;10.51;56.77;101148.03;6159785;23;19928;-85
2021/03/29 07:56:34;;;;;;;;;;;;;;;10.49;56.75;101142.75;6186294;23;19967;-86
2021/03/29 07:58:59;;;;;;;;;;;;;;;10.50;56.60;101144.50;6185505;23;19917;-83
2021/03/29 08:01:25;;;;;;;;;;;;;;;10.50;57.09;101148.94;6187404;23;19916;-86
2021/03/29 08:03:53;;;;;;;;;;;;;;;10.50;56.47;101148.94;6182492;23;19938;-84
2021/03/29 08:06:54;;;;;;;;;;;;;;;10.50;56.55;101152.47;6161173;23;19924;-86
2021/03/29 08:09:20;;;;;;;;;;;;;;;10.51;57.29;101154.22;6095015;23;20007;-86
2021/03/29 08:11:53;;;;;;;;;;;;;;;10.51;56.62;101150.66;6142948;23;20269;-85
2021/03/29 08:14:29;;;;;;;;;;;;;;;10.51;56.78;101159.50;6186059;23;19935;-86
2021/03/29 08:16:54;;;;;;;;;;;;;;;10.51;57.11;101155.97;6185578;23;19927;-85
2021/03/29 08:19:25;;;;;;;;;;;;;;;10.51;56.60;101156.88;6187017;23;19916;-85
2021/03/29 08:21:51;;;;;;;;;;;;;;;10.51;56.63;101155.97;6160612;23;19917;-86
2021/03/29 08:24:27;;;;;;;;;;;;;;;10.52;56.96;101163.03;6159714;23;19927;-85
2021/03/29 08:26:54;;;;;;;;;;;;;;;10.51;56.72;101156.88;6186004;23;19916;-85
2021/03/29 08:29:21;;;;;;;;;;;;;;;10.52;56.97;101165.69;6185935;23;19952;-86
2021/03/29 08:31:59;;;;;;;;;;;;;;;10.53;56.74;101164.78;6159610;23;19916;-85
2021/03/29 08:34:25;;;;;;;;;;;;;;;10.51;56.95;101162.16;6159467;23;19916;-86
2021/03/29 08:36:52;;;;;;;;;;;;;;;10.53;56.71;101164.78;6185014;23;19990;-86
2021/03/29 08:39:18;;;;;;;;;;;;;;;10.53;56.82;101164.78;6159812;23;19970;-86
2021/03/29 08:41:43;;;;;;;;;;;;;;;10.53;57.43;101167.44;6185114;23;19947;-86
2021/03/29 08:44:10;;;;;;;;;;;;;;;10.53;57.22;101159.50;6159962;23;19927;-86
2021/03/29 08:46:36;;;;;;;;;;;;;;;10.52;57.47;101163.88;6160346;23;19926;-86
2021/03/29 08:49:06;;;;;;;;;;;;;;;10.53;57.23;101167.44;6184963;23;19935;-85
2021/03/29 08:51:31;;;;;;;;;;;;;;;10.54;57.29;101171.81;6186227;23;19956;-85
2021/03/29 08:54:10;;;;;;;;;;;;;;;10.54;57.13;101166.50;6185416;23;19924;-85
2021/03/29 08:56:38;;;;;;;;;;;;;;;10.55;57.72;101157.66;6160111;23;19920;-85
2021/03/29 08:59:04;;;;;;;;;;;;;;;10.53;57.56;101163.00;6159567;23;19987;-86
2021/03/29 09:01:29;;;;;;;;;;;;;;;10.54;57.48;101161.22;6159998;23;20197;-85
2021/03/29 09:04:02;;;;;;;;;;;;;;;10.56;57.08;101158.53;6159207;23;19928;-85
2021/03/29 09:06:28;;;;;;;;;;;;;;;10.56;57.87;101164.69;6159681;23;19916;-84
2021/03/29 09:08:54;;;;;;;;;;;;;;;10.55;57.77;101162.97;6185214;23;19920;-85
2021/03/29 09:11:20;;;;;;;;;;;;;;;10.56;57.65;101161.19;6185412;23;19916;-84
2021/03/29 09:13:45;;;;;;;;;;;;;;;10.56;57.55;101164.69;6185138;23;19966;-85
2021/03/29 09:16:11;;;;;;;;;;;;;;;10.56;58.10;101162.03;6160062;23;19987;-85
2021/03/29 09:18:36;;;;;;;;;;;;;;;10.56;57.49;101162.03;6185430;23;19920;-85
2021/03/29 09:21:01;;;;;;;;;;;;;;;10.57;58.48;101168.25;6185191;23;19924;-85
2021/03/29 09:23:33;;;;;;;;;;;;;;;10.56;58.11;101169.13;6158693;23;19924;-86
2021/03/29 09:26:02;;;;;;;;;;;;;;;10.58;58.02;101169.97;6159762;23;19923;-85
2021/03/29 09:30:56;;;;;;;;;;;;;;;10.58;57.80;101178.81;6191931;23;20325;-85
2021/03/29 09:33:22;;;;;;;;;;;;;;;10.58;57.94;101181.47;6185952;23;19974;-86
2021/03/29 09:35:48;;;;;;;;;;;;;;;10.57;58.06;101174.41;6160846;23;20386;-85
2021/03/29 09:38:14;;;;;;;;;;;;;;;10.58;58.22;101178.81;6160112;23;20301;-85
2021/03/29 09:40:39;;;;;;;;;;;;;;;10.59;57.94;101184.97;6185367;23;19920;-85
2021/03/29 09:43:05;;;;;;;;;;;;;;;10.59;57.91;101185.84;6159497;23;19929;-85
2021/03/29 09:45:31;;;;;;;;;;;;;;;10.60;58.15;101182.28;6159387;23;19923;-84
2021/03/29 09:48:04;;;;;;;;;;;;;;;10.59;58.14;101175.22;6185820;23;19950;-87
2021/03/29 09:50:32;;;;;;;;;;;;;;;10.59;58.62;101175.22;6185437;23;19920;-85
2021/03/29 09:53:28;;;;;;;;;;;;;;;10.60;58.56;101186.72;6158506;23;19920;-85
2021/03/29 09:55:58;;;;;;;;;;;;;;;10.61;58.34;101191.09;6155268;23;19916;-85
2021/03/29 09:58:23;;;;;;;;;;;;;;;10.60;58.72;101187.59;6188509;23;19916;-84
2021/03/29 10:00:50;;;;;;;;;;;;;;;10.61;58.64;101184.06;6186717;23;19991;-85
2021/03/29 10:03:17;;;;;;;;;;;;;;;10.61;58.82;101192.00;6161677;23;19940;-87
2021/03/29 10:05:42;;;;;;;;;;;;;;;10.62;58.55;101193.72;6161595;23;19933;-86
2021/03/29 10:08:08;;;;;;;;;;;;;;;10.62;59.00;101180.47;6161138;23;19927;-85
2021/03/29 10:10:34;;;;;;;;;;;;;;;10.62;58.57;101180.47;6160067;23;20282;-85
2021/03/29 10:13:10;;;;;;;;;;;;;;;10.61;59.27;101178.75;6186512;23;19916;-84
2021/03/29 10:15:37;;;;;;;;;;;;;;;10.61;59.07;101178.75;6186969;23;19916;-85
2021/03/29 10:18:20;;;;;;;;;;;;;;;10.63;58.97;101181.38;6161184;23;19921;-86
2021/03/29 10:20:45;;;;;;;;;;;;;;;10.62;59.00;101169.88;6187326;23;19924;-87
2021/03/29 10:23:24;;;;;;;;;;;;;;;10.63;58.99;101176.94;6161298;23;19920;-85
2021/03/29 10:26:08;;;;;;;;;;;;;;;10.63;59.26;101163.66;6161958;23;19923;-87
2021/03/29 10:28:34;;;;;;;;;;;;;;;10.64;59.09;101161.88;6187353;23;19964;-86
2021/03/29 10:30:59;;;;;;;;;;;;;;;10.64;59.08;101157.47;6161405;23;20001;-86
2021/03/29 10:33:24;;;;;;;;;;;;;;;10.65;59.33;101166.28;6184914;23;20129;-85
2021/03/29 10:35:51;;;;;;;;;;;;;;;10.66;58.85;101157.44;6160469;23;20342;-85
2021/03/29 10:38:16;;;;;;;;;;;;;;;10.63;59.28;101150.41;6187276;23;20469;-85
2021/03/29 10:40:41;;;;;;;;;;;;;;;10.64;59.77;101151.28;6185065;23;19920;-85
2021/03/29 10:43:07;;;;;;;;;;;;;;;10.65;59.80;101159.19;6160380;23;19916;-86
2021/03/29 10:45:32;;;;;;;;;;;;;;;10.66;59.58;101155.66;6186184;23;19916;-85
2021/03/29 10:47:57;;;;;;;;;;;;;;;10.66;59.51;101153.00;6160446;23;20336;-86
2021/03/29 10:50:23;;;;;;;;;;;;;;;10.66;59.53;101147.72;6187603;23;20321;-86
2021/03/29 10:52:48;;;;;;;;;;;;;;;10.67;59.19;101152.13;6160482;23;19916;-86
2021/03/29 10:55:14;;;;;;;;;;;;;;;10.67;59.72;101151.22;6160036;23;19927;-86
2021/03/29 10:57:40;;;;;;;;;;;;;;;10.68;59.76;101148.53;6158852;23;19923;-82
2021/03/29 11:00:06;;;;;;;;;;;;;;;10.67;59.74;101152.13;6159659;23;19926;-85
2021/03/29 11:02:31;;;;;;;;;;;;;;;10.68;59.70;101137.06;6159472;23;19995;-84
2021/03/29 11:04:57;;;;;;;;;;;;;;;10.68;59.90;101147.69;6186266;23;19923;-84
2021/03/29 11:07:22;;;;;;;;;;;;;;;10.67;59.98;101146.81;6184910;23;20309;-85
2021/03/29 11:09:47;;;;;;;;;;;;;;;10.68;59.87;101145.03;6185679;23;19971;-85
2021/03/29 11:12:13;;;;;;;;;;;;;;;10.68;59.74;101142.38;6159967;23;20449;-84
2021/03/29 11:14:38;;;;;;;;;;;;;;;10.70;59.63;101135.25;6155502;23;19922;-84
2021/03/29 11:17:04;;;;;;;;;;;;;;;10.68;59.92;101132.63;6153686;23;19924;-84
2021/03/29 11:19:30;;;;;;;;;;;;;;;10.70;60.20;101128.16;6154693;23;20341;-84
2021/03/29 11:21:55;;;;;;;;;;;;;;;10.70;59.84;101130.81;6155232;23;19991;-84
2021/03/29 11:24:21;;;;;;;;;;;;;;;10.71;59.85;101134.34;6154422;23;19923;-84
2021/03/29 11:26:47;;;;;;;;;;;;;;;10.71;59.74;101129.91;6153288;23;19916;-86
2021/03/29 11:29:13;;;;;;;;;;;;;;;10.73;59.80;101132.53;6154984;23;19972;-86
2021/03/29 11:31:41;;;;;;;;;;;;;;;10.74;59.90;101136.94;6155257;23;19944;-86
2021/03/29 11:34:06;;;;;;;;;;;;;;;10.73;60.08;101120.13;6154254;23;20345;-87
2021/03/29 11:36:32;;;;;;;;;;;;;;;10.74;60.23;101121.03;6156093;23;19920;-87
2021/03/29 11:38:57;;;;;;;;;;;;;;;10.75;60.20;101120.09;6154374;23;19956;-86
2021/03/29 11:41:23;;;;;;;;;;;;;;;10.76;60.58;101121.00;6156027;23;19931;-85
2021/03/29 11:43:48;;;;;;;;;;;;;;;10.76;60.62;101113.91;6157247;23;19916;-85
2021/03/29 11:46:14;;;;;;;;;;;;;;;10.77;60.41;101123.63;6155439;23;19917;-86
2021/03/29 11:48:40;;;;;;;;;;;;;;;10.79;60.61;101120.94;6154622;23;19938;-87
2021/03/29 11:51:06;;;;;;;;;;;;;;;10.78;60.28;101112.09;6155155;23;19916;-86
2021/03/29 11:53:32;;;;;;;;;;;;;;;10.78;60.32;101113.88;6155530;23;19940;-83
2021/03/29 11:55:58;;;;;;;;;;;;;;;10.80;60.42;101117.34;6154549;23;19916;-85
2021/03/29 11:58:24;;;;;;;;;;;;;;;10.79;60.52;101108.53;6154921;23;19927;-85
2021/03/29 12:00:54;;;;;;;;;;;;;;;10.79;60.63;101107.69;6155880;23;19971;-85
2021/03/29 12:03:32;;;;;;;;;;;;;;;10.81;60.59;101111.16;6154110;23;20361;-85
2021/03/29 12:06:22;;;;;;;;;;;;;;;10.80;60.74;101114.69;6154718;23;20323;-85
2021/03/29 12:08:57;;;;;;;;;;;;;;;10.79;60.68;101099.72;6147788;23;19924;-85
2021/03/29 12:14:08;;;;;;;;;;;;;;;10.81;60.65;101100.56;6176078;23;19923;-85
2021/03/29 12:16:39;;;;;;;;;;;;;;;10.80;60.54;101093.50;6183857;23;19916;-85
2021/03/29 12:19:04;;;;;;;;;;;;;;;10.81;60.61;101103.19;6157628;23;19912;-86
2021/03/29 12:21:37;;;;;;;;;;;;;;;10.83;60.99;101101.38;6158147;23;19959;-85
2021/03/29 12:24:07;;;;;;;;;;;;;;;10.85;60.82;101107.50;6185275;23;20213;-86
2021/03/29 12:26:32;;;;;;;;;;;;;;;10.86;60.81;101101.31;6185017;23;19943;-87
